createdAt,value
2018-07-31T00:01:18.407Z,5.90
2018-07-31T00:03:46.403Z,6.73
2018-07-31T00:06:18.868Z,6.27
2018-07-31T00:08:47.291Z,5.13
2018-07-31T00:11:15.220Z,6.23
2018-07-31T00:13:43.164Z,8.30
2018-07-31T00:16:11.104Z,7.03
2018-07-31T00:18:39.132Z,5.67
2018-07-31T00:21:07.337Z,6.67
2018-07-31T00:23:35.300Z,6.10
2018-07-31T00:26:03.260Z,6.43
2018-07-31T00:28:31.188Z,6.03
2018-07-31T00:30:59.115Z,6.30
2018-07-31T00:33:27.040Z,6.07
2018-07-31T00:35:55.892Z,5.30
2018-07-31T00:38:23.937Z,6.73
2018-07-31T00:40:51.852Z,7.17
2018-07-31T00:43:19.797Z,9.07
2018-07-31T00:45:47.725Z,5.90
2018-07-31T00:48:22.333Z,11.83
2018-07-31T00:50:50.281Z,10.27
2018-07-31T00:53:18.568Z,7.30
2018-07-31T00:55:46.519Z,10.53
2018-07-31T00:58:14.528Z,11.57
2018-07-31T01:00:42.449Z,7.93
2018-07-31T01:03:10.385Z,7.67
2018-07-31T01:05:38.361Z,7.63
2018-07-31T01:08:06.305Z,8.73
2018-07-31T01:10:34.357Z,10.20
2018-07-31T01:13:02.297Z,9.40
2018-07-31T01:15:30.273Z,8.97
2018-07-31T01:17:58.285Z,8.57
2018-07-31T01:20:26.217Z,9.17
2018-07-31T01:22:54.161Z,8.17
2018-07-31T01:25:22.105Z,11.07
2018-07-31T01:27:50.046Z,12.03
2018-07-31T01:30:17.977Z,11.13
2018-07-31T01:32:46.409Z,9.03
2018-07-31T01:35:14.365Z,10.17
2018-07-31T01:37:42.293Z,12.83
2018-07-31T01:40:10.265Z,11.93
2018-07-31T01:42:38.194Z,10.50
2018-07-31T01:45:06.129Z,10.53
2018-07-31T01:47:34.074Z,11.63
2018-07-31T01:50:02.026Z,11.03
2018-07-31T01:52:29.999Z,13.70
2018-07-31T01:54:57.929Z,14.73
2018-07-31T01:57:25.868Z,12.73
2018-07-31T01:59:53.831Z,15.40
2018-07-31T02:02:21.794Z,13.30
2018-07-31T02:04:49.870Z,14.23
2018-07-31T02:07:17.829Z,16.47
2018-07-31T02:09:46.523Z,14.07
2018-07-31T02:12:14.574Z,16.50
2018-07-31T02:14:42.531Z,15.73
2018-07-31T02:17:10.573Z,17.27
2018-07-31T02:19:38.462Z,15.97
2018-07-31T02:22:06.398Z,20.97
2018-07-31T02:24:34.382Z,16.70
2018-07-31T02:27:02.471Z,17.90
2018-07-31T02:29:35.875Z,17.80
2018-07-31T02:32:03.935Z,17.20
2018-07-31T02:34:31.874Z,17.97
2018-07-31T02:36:59.820Z,18.67
2018-07-31T02:39:27.799Z,18.27
2018-07-31T02:41:55.766Z,17.63
2018-07-31T02:44:23.694Z,21.43
2018-07-31T02:46:51.651Z,24.35
2018-07-31T02:49:19.615Z,19.90
2018-07-31T02:51:47.814Z,19.83
2018-07-31T02:54:15.750Z,19.63
2018-07-31T02:56:43.687Z,21.37
2018-07-31T02:59:11.655Z,20.43
2018-07-31T03:01:39.647Z,20.10
2018-07-31T03:04:07.658Z,20.40
2018-07-31T03:06:35.631Z,19.53
2018-07-31T03:09:04.651Z,19.47
2018-07-31T03:11:32.561Z,20.27
2018-07-31T03:14:00.515Z,19.43
2018-07-31T03:16:28.470Z,19.27
2018-07-31T03:18:56.404Z,21.10
2018-07-31T03:21:24.339Z,20.00
2018-07-31T03:23:52.263Z,19.43
2018-07-31T03:26:20.248Z,18.97
2018-07-31T03:28:48.219Z,20.23
2018-07-31T03:31:16.171Z,18.90
2018-07-31T03:33:44.804Z,19.07
2018-07-31T03:36:12.756Z,17.60
2018-07-31T03:38:40.803Z,18.73
2018-07-31T03:41:08.723Z,18.23
2018-07-31T03:43:36.987Z,22.43
2018-07-31T03:46:04.949Z,19.53
2018-07-31T03:48:33.050Z,17.90
2018-07-31T03:51:01.407Z,18.13
2018-07-31T03:53:30.771Z,18.63
2018-07-31T03:55:58.838Z,16.33
2018-07-31T03:58:26.803Z,16.80
2018-07-31T04:00:54.771Z,16.50
2018-07-31T04:03:22.703Z,17.67
2018-07-31T04:05:50.643Z,15.83
2018-07-31T04:08:18.587Z,15.50
2018-07-31T04:10:47.275Z,17.63
2018-07-31T04:13:15.286Z,16.77
2018-07-31T04:15:43.211Z,22.13
2018-07-31T04:18:11.164Z,19.10
2018-07-31T04:20:39.947Z,15.53
2018-07-31T04:23:07.996Z,15.37
2018-07-31T04:25:35.935Z,14.33
2018-07-31T04:28:03.928Z,14.80
2018-07-31T04:30:31.877Z,13.20
2018-07-31T04:32:59.795Z,14.33
2018-07-31T04:35:27.813Z,14.33
2018-07-31T04:37:57.902Z,13.90
2018-07-31T04:40:26.264Z,13.73
2018-07-31T04:42:54.429Z,12.87
2018-07-31T04:45:22.586Z,13.43
2018-07-31T04:47:50.757Z,13.77
2018-07-31T04:50:19.505Z,13.53
2018-07-31T04:52:48.142Z,12.83
2018-07-31T04:55:16.322Z,14.53
2018-07-31T04:57:44.566Z,13.13
2018-07-31T05:00:12.730Z,13.30
2018-07-31T05:02:40.889Z,13.93
2018-07-31T05:05:09.070Z,11.80
2018-07-31T05:07:39.369Z,12.87
2018-07-31T05:10:11.506Z,11.53
2018-07-31T05:12:40.390Z,11.93
2018-07-31T05:15:08.638Z,11.60
2018-07-31T05:17:37.961Z,11.37
2018-07-31T05:20:06.698Z,11.10
2018-07-31T05:22:34.910Z,10.50
2018-07-31T05:25:03.133Z,11.13
2018-07-31T05:27:31.359Z,12.37
2018-07-31T05:29:59.548Z,10.93
2018-07-31T05:32:35.571Z,11.37
2018-07-31T05:35:04.303Z,12.50
2018-07-31T05:37:32.510Z,10.93
2018-07-31T05:40:00.716Z,13.40
2018-07-31T05:42:28.912Z,11.30
2018-07-31T05:44:57.107Z,12.03
2018-07-31T05:47:25.283Z,13.57
2018-07-31T05:49:53.459Z,14.25
2018-07-31T05:52:21.644Z,13.17
2018-07-31T05:54:50.043Z,10.40
2018-07-31T05:57:18.298Z,10.60
2018-07-31T05:59:46.427Z,15.13
2018-07-31T06:02:15.132Z,11.60
2018-07-31T06:04:43.479Z,11.57
2018-07-31T06:07:11.740Z,11.50
2018-07-31T06:09:40.040Z,13.30
2018-07-31T06:12:08.196Z,10.70
2018-07-31T06:14:36.364Z,12.10
2018-07-31T06:17:04.552Z,13.77
2018-07-31T06:19:32.767Z,11.40
2018-07-31T06:22:00.912Z,10.83
2018-07-31T06:24:29.096Z,22.83
2018-07-31T06:26:57.390Z,11.83
2018-07-31T06:29:25.575Z,12.87
2018-07-31T06:31:53.827Z,11.78
2018-07-31T06:34:22.064Z,11.27
2018-07-31T06:36:50.372Z,11.53
2018-07-31T06:39:18.548Z,98.07
2018-07-31T06:41:46.793Z,18.43
2018-07-31T06:44:15.010Z,13.80
2018-07-31T06:46:43.273Z,11.80
2018-07-31T06:49:11.445Z,11.73
2018-07-31T06:51:39.608Z,15.97
2018-07-31T06:54:07.787Z,14.60
2018-07-31T06:56:35.989Z,12.53
2018-07-31T06:59:04.179Z,10.53
2018-07-31T07:01:32.412Z,11.37
2018-07-31T07:04:00.604Z,10.03
2018-07-31T07:06:28.960Z,9.33
2018-07-31T07:08:57.152Z,10.53
2018-07-31T07:11:25.361Z,13.17
2018-07-31T07:13:53.560Z,10.90
2018-07-31T07:16:21.809Z,9.20
2018-07-31T07:18:50.033Z,8.67
2018-07-31T07:21:18.360Z,10.97
2018-07-31T07:23:46.557Z,8.83
2018-07-31T07:26:14.701Z,10.33
2018-07-31T07:28:42.917Z,8.93
2018-07-31T07:31:11.121Z,8.60
2018-07-31T07:33:39.379Z,10.37
2018-07-31T07:36:07.549Z,8.70
2018-07-31T07:38:35.845Z,8.03
2018-07-31T07:41:04.638Z,12.03
2018-07-31T07:43:32.841Z,10.23
2018-07-31T07:46:01.033Z,8.53
2018-07-31T07:48:29.340Z,10.80
2018-07-31T07:50:57.500Z,10.40
2018-07-31T07:53:25.753Z,14.67
2018-07-31T07:55:54.029Z,10.73
2018-07-31T07:58:22.217Z,16.50
2018-07-31T08:00:50.492Z,11.50
2018-07-31T08:03:18.776Z,9.03
2018-07-31T08:05:46.965Z,7.97
2018-07-31T08:08:15.189Z,8.23
2018-07-31T08:10:43.849Z,6.90
2018-07-31T08:13:12.361Z,6.60
2018-07-31T08:15:40.658Z,8.65
2018-07-31T08:18:08.849Z,12.33
2018-07-31T08:20:37.031Z,7.87
2018-07-31T08:23:05.309Z,8.80
2018-07-31T08:25:33.536Z,8.65
2018-07-31T08:28:01.798Z,11.08
2018-07-31T08:30:29.998Z,7.17
2018-07-31T08:32:58.242Z,7.27
2018-07-31T08:35:27.154Z,6.97
2018-07-31T08:37:55.373Z,7.03
2018-07-31T08:40:23.581Z,7.45
2018-07-31T08:42:51.813Z,5.33
2018-07-31T08:45:19.997Z,6.62
2018-07-31T08:47:48.269Z,9.70
2018-07-31T08:50:16.285Z,6.08
2018-07-31T08:52:44.486Z,7.08
2018-07-31T08:55:12.650Z,7.28
2018-07-31T08:57:40.842Z,6.37
2018-07-31T09:00:09.630Z,6.75
2018-07-31T09:02:37.849Z,5.33
2018-07-31T09:05:06.090Z,8.23
2018-07-31T09:07:34.410Z,6.33
2018-07-31T09:10:02.585Z,6.20
2018-07-31T09:12:30.754Z,5.75
2018-07-31T09:14:58.978Z,7.65
2018-07-31T09:17:27.176Z,5.12
2018-07-31T09:19:55.374Z,10.48
2018-07-31T09:22:23.584Z,5.85
2018-07-31T09:24:51.876Z,5.95
2018-07-31T09:27:20.083Z,4.33
2018-07-31T09:29:48.002Z,7.58
2018-07-31T09:32:20.069Z,5.85
2018-07-31T09:34:48.284Z,7.58
2018-07-31T09:37:16.954Z,8.63
2018-07-31T09:39:45.151Z,5.25
2018-07-31T09:42:13.326Z,7.15
2018-07-31T09:44:41.583Z,4.95
2018-07-31T09:47:09.914Z,4.70
2018-07-31T09:49:38.111Z,5.08
2018-07-31T09:52:06.846Z,4.95
2018-07-31T09:54:35.081Z,5.20
2018-07-31T09:57:03.480Z,4.35
2018-07-31T09:59:31.679Z,7.03
2018-07-31T10:01:59.855Z,5.37
2018-07-31T10:04:28.059Z,4.45
2018-07-31T10:06:56.283Z,5.42
2018-07-31T10:09:24.467Z,5.55
2018-07-31T10:11:52.713Z,3.90
2018-07-31T10:14:20.911Z,3.47
2018-07-31T10:16:49.091Z,5.47
2018-07-31T10:19:17.315Z,5.70
2018-07-31T10:21:45.495Z,3.95
2018-07-31T10:24:13.660Z,4.58
2018-07-31T10:26:41.844Z,6.42
2018-07-31T10:29:10.594Z,5.10
2018-07-31T10:31:38.804Z,5.85
2018-07-31T10:34:07.335Z,8.10
2018-07-31T10:36:35.616Z,3.55
2018-07-31T10:39:05.839Z,5.22
2018-07-31T10:41:34.028Z,3.58
2018-07-31T10:44:02.341Z,5.87
2018-07-31T10:46:30.477Z,2.17
2018-07-31T10:48:58.799Z,7.03
2018-07-31T10:51:26.937Z,7.10
2018-07-31T10:53:55.102Z,4.10
2018-07-31T10:56:23.336Z,2.67
2018-07-31T10:58:51.536Z,3.22
2018-07-31T11:01:19.716Z,3.77
2018-07-31T11:03:47.976Z,7.20
2018-07-31T11:06:16.217Z,6.55
2018-07-31T11:08:44.363Z,4.35
2018-07-31T11:11:12.577Z,5.58
2018-07-31T11:13:40.828Z,5.08
2018-07-31T11:16:11.032Z,3.43
2018-07-31T11:18:39.441Z,2.75
2018-07-31T11:21:14.019Z,5.43
2018-07-31T11:23:41.945Z,6.53
2018-07-31T11:26:09.943Z,6.45
2018-07-31T11:28:37.909Z,4.80
2018-07-31T11:31:06.389Z,6.53
2018-07-31T11:33:34.597Z,6.35
2018-07-31T11:36:02.773Z,4.78
2018-07-31T11:38:31.017Z,4.72
2018-07-31T11:40:59.161Z,3.95
2018-07-31T11:43:27.345Z,7.60
2018-07-31T11:45:55.604Z,5.83
2018-07-31T11:48:23.779Z,7.60
2018-07-31T11:50:51.973Z,6.22
2018-07-31T11:53:20.165Z,5.85
2018-07-31T11:55:48.385Z,4.35
2018-07-31T11:58:16.557Z,5.25
2018-07-31T12:00:44.793Z,5.70
2018-07-31T12:03:12.973Z,6.22
2018-07-31T12:05:41.157Z,6.28
2018-07-31T12:08:09.417Z,4.25
2018-07-31T12:10:37.679Z,3.55
2018-07-31T12:13:05.886Z,7.00
2018-07-31T12:15:34.082Z,5.20
2018-07-31T12:18:02.366Z,5.70
2018-07-31T12:20:30.542Z,4.33
2018-07-31T12:22:58.766Z,7.45
2018-07-31T12:25:26.931Z,4.62
2018-07-31T12:27:55.414Z,4.33
2018-07-31T12:30:32.802Z,6.17
2018-07-31T12:33:03.911Z,5.58
2018-07-31T12:35:31.878Z,3.17
2018-07-31T12:37:59.832Z,7.35
2018-07-31T12:40:27.790Z,11.25
2018-07-31T12:42:55.846Z,3.77
2018-07-31T12:45:23.813Z,3.83
2018-07-31T12:47:52.042Z,3.33
2018-07-31T12:50:20.232Z,6.85
2018-07-31T12:52:48.418Z,2.70
2018-07-31T12:55:16.634Z,3.87
2018-07-31T12:57:44.846Z,3.92
2018-07-31T13:00:13.027Z,4.20
2018-07-31T13:02:40.972Z,6.45
2018-07-31T13:05:08.982Z,6.50
2018-07-31T13:07:42.406Z,4.33
2018-07-31T13:10:12.586Z,3.50
2018-07-31T13:12:42.490Z,3.00
2018-07-31T13:15:10.440Z,5.22
2018-07-31T13:17:38.382Z,3.80
2018-07-31T13:20:07.075Z,3.77
2018-07-31T13:22:35.302Z,3.50
2018-07-31T13:25:03.555Z,6.13
2018-07-31T13:27:31.851Z,4.60
2018-07-31T13:30:00.114Z,7.22
2018-07-31T13:32:28.310Z,3.45
2018-07-31T13:34:56.563Z,4.72
2018-07-31T13:37:24.915Z,3.77
2018-07-31T13:39:53.158Z,4.62
2018-07-31T13:42:21.439Z,4.30
2018-07-31T13:44:49.657Z,5.05
2018-07-31T13:47:17.902Z,5.67
2018-07-31T13:49:46.067Z,3.08
2018-07-31T13:52:14.275Z,3.62
2018-07-31T13:54:42.467Z,6.25
2018-07-31T13:57:10.856Z,2.02
2018-07-31T13:59:39.068Z,5.00
2018-07-31T14:02:07.404Z,3.08
2018-07-31T14:04:35.604Z,2.70
2018-07-31T14:07:03.910Z,2.17
2018-07-31T14:09:32.128Z,4.30
2018-07-31T14:12:00.364Z,2.58
2018-07-31T14:14:28.548Z,4.28
2018-07-31T14:16:56.769Z,3.84
2018-07-31T14:19:25.012Z,3.12
2018-07-31T14:21:53.204Z,3.72
2018-07-31T14:24:21.624Z,3.15
2018-07-31T14:26:49.561Z,5.97
2018-07-31T14:29:17.520Z,6.30
2018-07-31T14:31:45.676Z,2.83
2018-07-31T14:34:13.628Z,2.10
2018-07-31T14:36:41.694Z,3.83
2018-07-31T14:39:11.261Z,3.55
2018-07-31T14:41:39.596Z,2.00
2018-07-31T14:44:07.833Z,6.62
2018-07-31T14:46:36.056Z,4.15
2018-07-31T14:49:04.237Z,3.42
2018-07-31T14:51:32.464Z,2.67
2018-07-31T14:54:00.651Z,4.80
2018-07-31T14:56:28.899Z,3.10
2018-07-31T14:58:57.107Z,3.48
2018-07-31T15:01:25.157Z,2.45
2018-07-31T15:03:53.152Z,4.12
2018-07-31T15:06:21.165Z,2.83
2018-07-31T15:08:49.113Z,2.22
2018-07-31T15:11:17.184Z,3.15
2018-07-31T15:13:45.085Z,5.20
2018-07-31T15:16:13.310Z,2.30
2018-07-31T15:18:41.537Z,2.58
2018-07-31T15:21:09.804Z,2.58
2018-07-31T15:23:37.999Z,4.47
2018-07-31T15:26:06.239Z,2.45
2018-07-31T15:28:34.200Z,3.70
2018-07-31T15:31:02.378Z,3.40
2018-07-31T15:33:30.334Z,7.05
2018-07-31T15:35:58.258Z,6.17
2018-07-31T15:38:26.253Z,4.87
2018-07-31T15:40:54.185Z,5.85
2018-07-31T15:43:22.289Z,3.42
2018-07-31T15:45:50.250Z,4.37
2018-07-31T15:48:18.376Z,4.72
2018-07-31T15:50:46.364Z,5.33
2018-07-31T15:53:14.301Z,4.67
2018-07-31T15:55:42.298Z,7.10
2018-07-31T15:58:10.285Z,8.60
2018-07-31T16:00:38.482Z,9.18
2018-07-31T16:03:06.701Z,3.33
2018-07-31T16:05:34.894Z,5.97
2018-07-31T16:08:03.065Z,5.53
2018-07-31T16:10:31.322Z,6.95
2018-07-31T16:12:59.534Z,5.37
2018-07-31T16:15:27.746Z,6.95
2018-07-31T16:17:56.147Z,6.40
2018-07-31T16:20:24.474Z,3.40
2018-07-31T16:22:52.888Z,6.20
2018-07-31T16:25:20.847Z,5.08
2018-07-31T16:27:48.767Z,6.42
2018-07-31T16:30:16.712Z,5.40
2018-07-31T16:32:44.722Z,5.17
2018-07-31T16:35:12.803Z,7.05
2018-07-31T16:37:40.755Z,6.78
2018-07-31T16:40:08.702Z,6.72
2018-07-31T16:42:36.618Z,3.80
2018-07-31T16:45:04.566Z,7.08
2018-07-31T16:47:32.563Z,5.58
2018-07-31T16:50:00.492Z,6.05
2018-07-31T16:52:28.439Z,6.55
2018-07-31T16:54:56.391Z,6.50
2018-07-31T16:57:24.419Z,6.08
2018-07-31T16:59:52.691Z,5.70
2018-07-31T17:02:20.667Z,4.05
2018-07-31T17:04:48.944Z,6.80
2018-07-31T17:07:16.904Z,8.43
2018-07-31T17:09:44.871Z,6.97
2018-07-31T17:12:12.968Z,3.75
2018-07-31T17:14:40.967Z,4.90
2018-07-31T17:17:08.986Z,4.37
2018-07-31T17:19:36.931Z,6.42
2018-07-31T17:22:04.923Z,5.90
2018-07-31T17:24:32.876Z,4.97
2018-07-31T17:27:01.051Z,4.62
2018-07-31T17:29:29.387Z,6.30
2018-07-31T17:31:57.675Z,4.96
2018-07-31T17:34:25.883Z,5.80
2018-07-31T17:36:54.071Z,6.12
2018-07-31T17:39:22.360Z,3.47
2018-07-31T17:41:50.539Z,7.97
2018-07-31T17:44:18.719Z,4.90
2018-07-31T17:46:47.604Z,7.70
2018-07-31T17:49:15.832Z,5.25
2018-07-31T17:51:44.060Z,7.03
2018-07-31T17:54:12.284Z,4.70
2018-07-31T17:56:40.202Z,7.70
2018-07-31T17:59:09.068Z,5.45
2018-07-31T18:01:37.004Z,7.37
2018-07-31T18:04:05.173Z,7.97
2018-07-31T18:06:33.339Z,4.43
2018-07-31T18:09:01.626Z,6.55
2018-07-31T18:11:29.622Z,5.87
2018-07-31T18:13:57.677Z,4.53
2018-07-31T18:16:25.654Z,5.50
2018-07-31T18:18:53.606Z,4.37
2018-07-31T18:21:21.958Z,5.73
2018-07-31T18:23:49.982Z,4.47
2018-07-31T18:26:17.870Z,2.83
2018-07-31T18:28:45.799Z,5.53
2018-07-31T18:31:13.733Z,4.70
2018-07-31T18:33:41.673Z,4.70
2018-07-31T18:36:09.629Z,3.57
2018-07-31T18:38:37.727Z,7.50
2018-07-31T18:41:05.781Z,4.50
2018-07-31T18:43:33.630Z,5.23
2018-07-31T18:46:01.619Z,5.80
2018-07-31T18:48:29.550Z,4.47
2018-07-31T18:50:57.467Z,3.60
2018-07-31T18:53:25.522Z,3.80
2018-07-31T18:55:53.515Z,3.23
2018-07-31T18:58:21.459Z,4.50
2018-07-31T19:00:49.462Z,4.87
2018-07-31T19:03:17.399Z,3.00
2018-07-31T19:05:45.355Z,7.83
2018-07-31T19:08:13.400Z,4.60
2018-07-31T19:10:41.362Z,4.57
2018-07-31T19:13:09.312Z,5.13
2018-07-31T19:15:37.239Z,4.37
2018-07-31T19:18:05.207Z,4.47
2018-07-31T19:20:33.127Z,4.30
2018-07-31T19:23:01.121Z,5.70
2018-07-31T19:25:29.164Z,5.70
2018-07-31T19:27:57.118Z,5.27
2018-07-31T19:30:25.084Z,4.63
2018-07-31T19:32:53.819Z,4.80
2018-07-31T19:35:21.813Z,3.23
2018-07-31T19:37:49.740Z,6.10
2018-07-31T19:40:17.775Z,7.67
2018-07-31T19:42:45.691Z,5.37
2018-07-31T19:45:13.651Z,4.73
2018-07-31T19:47:41.640Z,3.67
2018-07-31T19:50:09.683Z,3.67
2018-07-31T19:52:37.633Z,5.47
2018-07-31T19:55:05.609Z,5.53
2018-07-31T19:57:33.561Z,3.40
2018-07-31T20:00:01.657Z,4.40
2018-07-31T20:02:29.575Z,5.40
2018-07-31T20:04:57.571Z,6.03
2018-07-31T20:07:25.531Z,5.07
2018-07-31T20:09:54.072Z,3.52
2018-07-31T20:12:22.065Z,4.70
2018-07-31T20:14:50.421Z,3.43
2018-07-31T20:17:18.331Z,5.57
2018-07-31T20:19:46.280Z,5.93
2018-07-31T20:22:14.208Z,3.20
2018-07-31T20:24:42.140Z,4.80
2018-07-31T20:27:10.089Z,3.23
2018-07-31T20:29:38.045Z,5.70
2018-07-31T20:32:05.975Z,6.63
2018-07-31T20:37:09.249Z,4.00
2018-07-31T20:39:37.217Z,3.87
2018-07-31T20:42:05.229Z,4.57
2018-07-31T20:44:33.196Z,3.00
2018-07-31T20:47:01.181Z,3.33
2018-07-31T20:49:29.084Z,3.13
2018-07-31T20:51:57.037Z,4.13
2018-07-31T20:54:25.705Z,5.17
2018-07-31T20:56:54.562Z,5.23
2018-07-31T20:59:22.526Z,4.80
2018-07-31T21:01:50.532Z,4.90
2018-07-31T21:04:18.470Z,4.53
2018-07-31T21:06:46.417Z,3.23
2018-07-31T21:09:18.993Z,3.10
2018-07-31T21:11:47.744Z,5.90
2018-07-31T21:14:15.737Z,5.80
2018-07-31T21:16:44.561Z,3.20
2018-07-31T21:19:12.502Z,3.60
2018-07-31T21:21:40.427Z,2.13
2018-07-31T21:24:08.463Z,4.63
2018-07-31T21:26:36.627Z,5.30
2018-07-31T21:29:04.887Z,7.80
2018-07-31T21:31:33.051Z,3.27
2018-07-31T21:34:01.231Z,4.70
2018-07-31T21:36:29.406Z,6.37
2018-07-31T21:38:57.601Z,2.07
2018-07-31T21:41:25.819Z,2.73
2018-07-31T21:43:53.987Z,3.57
2018-07-31T21:46:22.187Z,4.00
2018-07-31T21:48:50.391Z,3.97
2018-07-31T21:51:18.683Z,4.37
2018-07-31T21:53:47.858Z,4.17
2018-07-31T21:56:16.060Z,1.97
2018-07-31T21:58:44.223Z,3.47
2018-07-31T22:01:12.418Z,4.20
2018-07-31T22:03:40.614Z,2.73
2018-07-31T22:06:08.890Z,4.63
2018-07-31T22:08:37.586Z,4.07
2018-07-31T22:11:06.106Z,5.08
2018-07-31T22:13:34.053Z,2.73
2018-07-31T22:16:02.234Z,4.27
2018-07-31T22:18:30.458Z,4.90
2018-07-31T22:20:58.638Z,4.33
2018-07-31T22:23:26.850Z,5.67
2018-07-31T22:25:55.405Z,3.67
2018-07-31T22:28:23.599Z,3.30
2018-07-31T22:30:52.559Z,3.77
2018-07-31T22:33:20.779Z,2.00
2018-07-31T22:35:49.174Z,3.77
2018-07-31T22:38:17.384Z,3.93
2018-07-31T22:40:45.591Z,2.87
2018-07-31T22:43:13.775Z,3.53
2018-07-31T22:45:41.959Z,5.27
2018-07-31T22:48:10.138Z,5.03
2018-07-31T22:50:39.156Z,4.87
2018-07-31T22:53:07.351Z,3.60
2018-07-31T22:55:35.599Z,4.23
2018-07-31T22:58:03.870Z,6.07
2018-07-31T23:00:32.019Z,3.57
2018-07-31T23:03:00.260Z,1.83
2018-07-31T23:05:28.480Z,6.87
2018-07-31T23:07:56.743Z,3.97
2018-07-31T23:10:24.916Z,3.70
2018-07-31T23:12:53.330Z,4.57
2018-07-31T23:15:21.552Z,4.77
2018-07-31T23:17:50.221Z,3.53
2018-07-31T23:20:18.403Z,3.03
2018-07-31T23:22:49.727Z,2.27
2018-07-31T23:25:17.960Z,5.07
2018-07-31T23:27:46.195Z,3.40
2018-07-31T23:30:14.375Z,4.07
2018-07-31T23:32:43.771Z,6.27
2018-07-31T23:35:11.952Z,5.47
2018-07-31T23:37:40.165Z,4.50
2018-07-31T23:40:08.356Z,5.07
2018-07-31T23:42:36.336Z,4.20
2018-07-31T23:45:04.845Z,2.53
2018-07-31T23:47:33.077Z,3.30
2018-07-31T23:50:01.814Z,3.83
2018-07-31T23:52:30.422Z,3.63
2018-07-31T23:54:58.713Z,4.00
2018-07-31T23:57:26.922Z,4.37
2018-07-31T23:59:56.013Z,4.07
